UIA8721 RCSS-RCFN
Flight info
| Callsign | UIA8721 |
|---|---|
| Flight time | 0h 57m |
| Altitude | 15000 |
| Route | YILAN DCT TUTOR DCT BASEN DCT DRACO DCT OPTIM |
| Aircraft | AT76/M-SDFGIRY/SB1 |
Departure
| Time | 2026-04-24 09:32 |
|---|---|
| Airport | Taipei Songshan International Airport (RCSS) |
Arrival
| Time | 2026-04-24 10:30 |
|---|---|
| Airport | Taitung Airport (RCFN) |
| Time | Latitude | Longitude | Altitude | Speed | Heading |
|---|---|---|---|---|---|
| 2026-04-24 09:12 | 25.06786 | 121.55092 | 23 ft | 0 kts | 358° |
| 2026-04-24 09:21 | 25.06772 | 121.55092 | 26 ft | 2 kts | 5° |
| 2026-04-24 09:22 | 25.06755 | 121.55088 | 24 ft | 2 kts | 36° |
| 2026-04-24 09:22 | 25.06748 | 121.55075 | 26 ft | 1 kts | 89° |
| 2026-04-24 09:22 | 25.06748 | 121.55074 | 24 ft | 0 kts | 89° |
| 2026-04-24 09:25 | 25.06748 | 121.55081 | 24 ft | 2 kts | 90° |
| 2026-04-24 09:25 | 25.06748 | 121.55108 | 24 ft | 4 kts | 89° |
| 2026-04-24 09:25 | 25.06749 | 121.55133 | 23 ft | 3 kts | 87° |
| 2026-04-24 09:26 | 25.06750 | 121.55149 | 23 ft | 2 kts | 87° |
| 2026-04-24 09:26 | 25.06748 | 121.55162 | 23 ft | 2 kts | 103° |
| 2026-04-24 09:26 | 25.06718 | 121.55186 | 26 ft | 6 kts | 174° |
| 2026-04-24 09:26 | 25.06675 | 121.55189 | 25 ft | 6 kts | 176° |
| 2026-04-24 09:27 | 25.06637 | 121.55192 | 24 ft | 5 kts | 175° |
| 2026-04-24 09:27 | 25.06600 | 121.55189 | 24 ft | 6 kts | 201° |
| 2026-04-24 09:27 | 25.06572 | 121.55146 | 25 ft | 10 kts | 261° |
| 2026-04-24 09:27 | 25.06572 | 121.55048 | 24 ft | 14 kts | 268° |
| 2026-04-24 09:28 | 25.06569 | 121.54938 | 24 ft | 15 kts | 268° |
| 2026-04-24 09:28 | 25.06566 | 121.54824 | 24 ft | 15 kts | 268° |
| 2026-04-24 09:28 | 25.06585 | 121.54709 | 25 ft | 16 kts | 298° |
| 2026-04-24 09:28 | 25.06641 | 121.54607 | 25 ft | 15 kts | 302° |
| 2026-04-24 09:29 | 25.06708 | 121.54515 | 24 ft | 15 kts | 311° |
| 2026-04-24 09:29 | 25.06764 | 121.54416 | 24 ft | 15 kts | 294° |
| 2026-04-24 09:29 | 25.06821 | 121.54316 | 24 ft | 15 kts | 303° |
| 2026-04-24 09:29 | 25.06878 | 121.54215 | 24 ft | 16 kts | 301° |
| 2026-04-24 09:30 | 25.06912 | 121.54103 | 26 ft | 16 kts | 276° |
| 2026-04-24 09:30 | 25.06918 | 121.53998 | 24 ft | 5 kts | 296° |
| 2026-04-24 09:30 | 25.06959 | 121.53975 | 26 ft | 7 kts | 357° |
| 2026-04-24 09:30 | 25.06996 | 121.53996 | 27 ft | 5 kts | 54° |
| 2026-04-24 09:31 | 25.07002 | 121.54020 | 26 ft | 2 kts | 82° |
| 2026-04-24 09:31 | 25.07002 | 121.54026 | 25 ft | 0 kts | 88° |
| 2026-04-24 09:31 | 25.07002 | 121.54031 | 25 ft | 10 kts | 88° |
| 2026-04-24 09:31 | 25.06992 | 121.54336 | 23 ft | 69 kts | 92° |
| 2026-04-24 09:32 | 25.06966 | 121.55061 | 28 ft | 116 kts | 91° |
| 2026-04-24 09:32 | 25.06996 | 121.56004 | 340 ft | 125 kts | 81° |
| 2026-04-24 09:32 | 25.07198 | 121.56884 | 852 ft | 127 kts | 70° |
| 2026-04-24 09:32 | 25.07762 | 121.57779 | 859 ft | 153 kts | 56° |
| 2026-04-24 09:33 | 25.08208 | 121.58906 | 952 ft | 170 kts | 72° |
| 2026-04-24 09:33 | 25.08526 | 121.60204 | 1018 ft | 180 kts | 84° |
| 2026-04-24 09:33 | 25.08497 | 121.61134 | 1050 ft | 186 kts | 101° |
| 2026-04-24 09:33 | 25.07997 | 121.62479 | 1237 ft | 193 kts | 121° |
| 2026-04-24 09:34 | 25.07220 | 121.63637 | 1857 ft | 184 kts | 128° |
| 2026-04-24 09:34 | 25.06368 | 121.64652 | 2481 ft | 177 kts | 131° |
| 2026-04-24 09:34 | 25.05509 | 121.65613 | 3003 ft | 178 kts | 131° |
| 2026-04-24 09:34 | 25.04668 | 121.66626 | 3481 ft | 179 kts | 130° |
| 2026-04-24 09:35 | 25.03862 | 121.67690 | 3885 ft | 182 kts | 129° |
| 2026-04-24 09:35 | 25.03075 | 121.68799 | 4189 ft | 185 kts | 129° |
| 2026-04-24 09:35 | 25.02285 | 121.69936 | 4488 ft | 187 kts | 129° |
| 2026-04-24 09:35 | 25.01500 | 121.71095 | 4822 ft | 189 kts | 129° |
| 2026-04-24 09:36 | 25.00710 | 121.72265 | 5109 ft | 191 kts | 130° |
| 2026-04-24 09:36 | 24.99695 | 121.73138 | 5361 ft | 186 kts | 165° |
| 2026-04-24 09:36 | 24.98441 | 121.73474 | 5671 ft | 186 kts | 173° |
| 2026-04-24 09:36 | 24.97176 | 121.73737 | 6020 ft | 185 kts | 174° |
| 2026-04-24 09:37 | 24.95916 | 121.73995 | 6376 ft | 183 kts | 176° |
| 2026-04-24 09:37 | 24.94650 | 121.74269 | 6624 ft | 187 kts | 175° |
| 2026-04-24 09:37 | 24.93366 | 121.74564 | 6872 ft | 189 kts | 174° |
| 2026-04-24 09:37 | 24.92075 | 121.74866 | 7183 ft | 191 kts | 174° |
| 2026-04-24 09:38 | 24.90772 | 121.75175 | 7471 ft | 193 kts | 174° |
| 2026-04-24 09:38 | 24.89455 | 121.75490 | 7756 ft | 194 kts | 174° |
| 2026-04-24 09:38 | 24.88129 | 121.75808 | 8046 ft | 196 kts | 174° |
| 2026-04-24 09:38 | 24.86796 | 121.76127 | 8298 ft | 197 kts | 174° |
| 2026-04-24 09:39 | 24.85450 | 121.76450 | 8555 ft | 198 kts | 174° |
| 2026-04-24 09:39 | 24.84095 | 121.76776 | 8781 ft | 201 kts | 175° |
| 2026-04-24 09:39 | 24.82723 | 121.77101 | 9010 ft | 201 kts | 175° |
| 2026-04-24 09:39 | 24.81354 | 121.77431 | 9274 ft | 202 kts | 175° |
| 2026-04-24 09:40 | 24.79982 | 121.77760 | 9526 ft | 203 kts | 175° |
| 2026-04-24 09:40 | 24.78598 | 121.78092 | 9770 ft | 203 kts | 175° |
| 2026-04-24 09:40 | 24.77215 | 121.78423 | 10006 ft | 204 kts | 175° |
| 2026-04-24 09:40 | 24.75824 | 121.78757 | 10227 ft | 205 kts | 176° |
| 2026-04-24 09:41 | 24.74434 | 121.79091 | 10442 ft | 205 kts | 176° |
| 2026-04-24 09:41 | 24.73039 | 121.79355 | 10640 ft | 202 kts | 182° |
| 2026-04-24 09:41 | 24.71640 | 121.79455 | 10861 ft | 201 kts | 185° |
| 2026-04-24 09:41 | 24.70260 | 121.79511 | 11074 ft | 201 kts | 186° |
| 2026-04-24 09:42 | 24.68841 | 121.79582 | 11295 ft | 202 kts | 185° |
| 2026-04-24 09:42 | 24.67456 | 121.79658 | 11505 ft | 202 kts | 185° |
| 2026-04-24 09:42 | 24.66028 | 121.79748 | 11718 ft | 203 kts | 184° |
| 2026-04-24 09:42 | 24.64614 | 121.79844 | 11925 ft | 204 kts | 184° |
| 2026-04-24 09:43 | 24.63197 | 121.79945 | 12130 ft | 204 kts | 184° |
| 2026-04-24 09:43 | 24.61778 | 121.80054 | 12329 ft | 205 kts | 184° |
| 2026-04-24 09:43 | 24.60353 | 121.80158 | 12453 ft | 205 kts | 184° |
| 2026-04-24 09:43 | 24.58925 | 121.80262 | 12563 ft | 205 kts | 184° |
| 2026-04-24 09:44 | 24.57502 | 121.80364 | 12779 ft | 205 kts | 184° |
| 2026-04-24 09:44 | 24.56076 | 121.80464 | 12998 ft | 205 kts | 184° |
| 2026-04-24 09:44 | 24.54641 | 121.80564 | 13120 ft | 206 kts | 184° |
| 2026-04-24 09:44 | 24.53208 | 121.80680 | 13264 ft | 207 kts | 184° |
| 2026-04-24 09:45 | 24.51765 | 121.80790 | 13288 ft | 209 kts | 185° |
| 2026-04-24 09:45 | 24.50319 | 121.80880 | 13467 ft | 207 kts | 184° |
| 2026-04-24 09:45 | 24.48881 | 121.80982 | 13538 ft | 208 kts | 184° |
| 2026-04-24 09:45 | 24.47439 | 121.81098 | 13704 ft | 207 kts | 184° |
| 2026-04-24 09:46 | 24.46004 | 121.81206 | 13890 ft | 207 kts | 184° |
| 2026-04-24 09:46 | 24.44584 | 121.81312 | 14050 ft | 207 kts | 184° |
| 2026-04-24 09:46 | 24.43145 | 121.81414 | 14205 ft | 207 kts | 184° |
| 2026-04-24 09:46 | 24.41705 | 121.81519 | 14360 ft | 207 kts | 184° |
| 2026-04-24 09:47 | 24.40264 | 121.81621 | 14509 ft | 208 kts | 184° |
| 2026-04-24 09:47 | 24.38820 | 121.81726 | 14659 ft | 208 kts | 184° |
| 2026-04-24 09:47 | 24.37374 | 121.81828 | 14776 ft | 210 kts | 184° |
| 2026-04-24 09:47 | 24.35900 | 121.81933 | 14851 ft | 214 kts | 184° |
| 2026-04-24 09:48 | 24.34399 | 121.82036 | 14930 ft | 218 kts | 184° |
| 2026-04-24 09:48 | 24.32862 | 121.82141 | 14972 ft | 224 kts | 184° |
| 2026-04-24 09:48 | 24.31288 | 121.82247 | 14984 ft | 229 kts | 184° |
| 2026-04-24 09:48 | 24.29680 | 121.82345 | 14994 ft | 233 kts | 184° |
| 2026-04-24 09:49 | 24.28047 | 121.82444 | 14998 ft | 237 kts | 184° |
| 2026-04-24 09:49 | 24.26388 | 121.82550 | 15001 ft | 240 kts | 183° |
| 2026-04-24 09:49 | 24.24708 | 121.82665 | 15002 ft | 243 kts | 183° |
| 2026-04-24 09:49 | 24.23019 | 121.82764 | 14997 ft | 241 kts | 188° |
| 2026-04-24 09:50 | 24.21389 | 121.82478 | 15001 ft | 237 kts | 200° |
| 2026-04-24 09:50 | 24.19809 | 121.81958 | 15001 ft | 237 kts | 203° |
| 2026-04-24 09:50 | 24.18240 | 121.81395 | 15000 ft | 238 kts | 204° |
| 2026-04-24 09:50 | 24.16662 | 121.80840 | 15000 ft | 239 kts | 202° |
| 2026-04-24 09:51 | 24.15067 | 121.80320 | 15000 ft | 240 kts | 201° |
| 2026-04-24 09:51 | 24.13463 | 121.79817 | 15002 ft | 240 kts | 201° |
| 2026-04-24 09:51 | 24.11861 | 121.79313 | 15004 ft | 240 kts | 202° |
| 2026-04-24 09:51 | 24.10258 | 121.78808 | 15002 ft | 240 kts | 202° |
| 2026-04-24 09:52 | 24.08655 | 121.78304 | 15001 ft | 239 kts | 202° |
| 2026-04-24 09:52 | 24.07076 | 121.77806 | 15002 ft | 239 kts | 201° |
| 2026-04-24 09:52 | 24.05479 | 121.77304 | 15002 ft | 239 kts | 202° |
| 2026-04-24 09:52 | 24.03885 | 121.76801 | 15003 ft | 239 kts | 202° |
| 2026-04-24 09:53 | 24.02269 | 121.76292 | 14998 ft | 238 kts | 202° |
| 2026-04-24 09:53 | 24.00675 | 121.75791 | 15000 ft | 238 kts | 202° |
| 2026-04-24 09:53 | 23.99084 | 121.75292 | 15000 ft | 238 kts | 202° |
| 2026-04-24 09:53 | 23.97495 | 121.74791 | 14999 ft | 238 kts | 202° |
| 2026-04-24 09:54 | 23.95901 | 121.74289 | 14996 ft | 238 kts | 202° |
| 2026-04-24 09:54 | 23.94316 | 121.73792 | 14997 ft | 237 kts | 202° |
| 2026-04-24 09:54 | 23.92729 | 121.73292 | 14998 ft | 237 kts | 202° |
| 2026-04-24 09:54 | 23.91163 | 121.72801 | 14998 ft | 237 kts | 202° |
| 2026-04-24 09:55 | 23.89581 | 121.72303 | 14995 ft | 237 kts | 202° |
| 2026-04-24 09:55 | 23.87995 | 121.71805 | 14999 ft | 237 kts | 202° |
| 2026-04-24 09:55 | 23.86408 | 121.71307 | 14994 ft | 237 kts | 202° |
| 2026-04-24 09:55 | 23.84820 | 121.70809 | 14989 ft | 238 kts | 202° |
| 2026-04-24 09:56 | 23.83230 | 121.70310 | 14988 ft | 238 kts | 202° |
| 2026-04-24 09:56 | 23.81641 | 121.69812 | 14988 ft | 237 kts | 201° |
| 2026-04-24 09:56 | 23.80056 | 121.69315 | 14987 ft | 237 kts | 202° |
| 2026-04-24 09:56 | 23.78473 | 121.68817 | 14983 ft | 237 kts | 201° |
| 2026-04-24 09:57 | 23.76892 | 121.68321 | 14983 ft | 236 kts | 201° |
| 2026-04-24 09:57 | 23.75313 | 121.67826 | 14984 ft | 236 kts | 201° |
| 2026-04-24 09:57 | 23.73736 | 121.67332 | 14983 ft | 236 kts | 201° |
| 2026-04-24 09:57 | 23.72160 | 121.66837 | 14981 ft | 235 kts | 201° |
| 2026-04-24 09:58 | 23.70587 | 121.66346 | 14982 ft | 235 kts | 201° |
| 2026-04-24 09:58 | 23.69013 | 121.65853 | 14985 ft | 235 kts | 201° |
| 2026-04-24 09:58 | 23.67443 | 121.65361 | 14981 ft | 235 kts | 201° |
| 2026-04-24 09:58 | 23.65872 | 121.64869 | 14983 ft | 235 kts | 201° |
| 2026-04-24 09:59 | 23.64302 | 121.64378 | 14977 ft | 235 kts | 201° |
| 2026-04-24 09:59 | 23.62726 | 121.63888 | 14980 ft | 235 kts | 201° |
| 2026-04-24 09:59 | 23.61155 | 121.63401 | 14980 ft | 235 kts | 201° |
| 2026-04-24 09:59 | 23.59584 | 121.62918 | 14978 ft | 235 kts | 201° |
| 2026-04-24 10:00 | 23.58009 | 121.62448 | 14979 ft | 235 kts | 201° |
| 2026-04-24 10:00 | 23.56432 | 121.61978 | 14977 ft | 235 kts | 201° |
| 2026-04-24 10:00 | 23.54859 | 121.61490 | 14972 ft | 235 kts | 201° |
| 2026-04-24 10:00 | 23.53289 | 121.61001 | 14978 ft | 235 kts | 201° |
| 2026-04-24 10:01 | 23.51721 | 121.60512 | 14976 ft | 235 kts | 201° |
| 2026-04-24 10:01 | 23.50153 | 121.60023 | 14978 ft | 234 kts | 201° |
| 2026-04-24 10:01 | 23.48570 | 121.59528 | 14803 ft | 241 kts | 201° |
| 2026-04-24 10:01 | 23.46930 | 121.59015 | 14572 ft | 249 kts | 201° |
| 2026-04-24 10:02 | 23.45244 | 121.58490 | 14338 ft | 255 kts | 201° |
| 2026-04-24 10:02 | 23.43525 | 121.57956 | 14104 ft | 259 kts | 201° |
| 2026-04-24 10:02 | 23.41777 | 121.57411 | 13878 ft | 263 kts | 201° |
| 2026-04-24 10:02 | 23.40004 | 121.56871 | 13626 ft | 266 kts | 199° |
| 2026-04-24 10:03 | 23.38155 | 121.56557 | 13362 ft | 272 kts | 191° |
| 2026-04-24 10:03 | 23.36260 | 121.56394 | 13109 ft | 274 kts | 189° |
| 2026-04-24 10:03 | 23.34353 | 121.56234 | 12860 ft | 276 kts | 190° |
| 2026-04-24 10:03 | 23.32433 | 121.56035 | 12614 ft | 278 kts | 191° |
| 2026-04-24 10:04 | 23.30517 | 121.55801 | 12413 ft | 276 kts | 191° |
| 2026-04-24 10:04 | 23.28619 | 121.55574 | 12243 ft | 274 kts | 191° |
| 2026-04-24 10:04 | 23.26724 | 121.55348 | 12065 ft | 273 kts | 191° |
| 2026-04-24 10:04 | 23.24846 | 121.55124 | 11894 ft | 272 kts | 191° |
| 2026-04-24 10:05 | 23.22970 | 121.54899 | 11722 ft | 271 kts | 191° |
| 2026-04-24 10:05 | 23.21097 | 121.54676 | 11553 ft | 271 kts | 191° |
| 2026-04-24 10:05 | 23.19222 | 121.54452 | 11376 ft | 271 kts | 191° |
| 2026-04-24 10:05 | 23.17350 | 121.54229 | 11266 ft | 270 kts | 191° |
| 2026-04-24 10:06 | 23.15489 | 121.54007 | 11144 ft | 269 kts | 191° |
| 2026-04-24 10:06 | 23.11777 | 121.53564 | 10905 ft | 268 kts | 191° |
| 2026-04-24 10:06 | 23.09925 | 121.53345 | 10784 ft | 268 kts | 191° |
| 2026-04-24 10:07 | 23.08069 | 121.53123 | 10664 ft | 268 kts | 191° |
| 2026-04-24 10:07 | 23.06217 | 121.52904 | 10540 ft | 268 kts | 191° |
| 2026-04-24 10:07 | 23.04367 | 121.52685 | 10424 ft | 267 kts | 191° |
| 2026-04-24 10:07 | 23.02521 | 121.52465 | 10308 ft | 267 kts | 191° |
| 2026-04-24 10:08 | 23.00670 | 121.52246 | 10189 ft | 267 kts | 191° |
| 2026-04-24 10:08 | 22.98824 | 121.52026 | 10078 ft | 267 kts | 191° |
| 2026-04-24 10:08 | 22.96973 | 121.51807 | 9958 ft | 267 kts | 191° |
| 2026-04-24 10:08 | 22.95124 | 121.51587 | 9839 ft | 267 kts | 191° |
| 2026-04-24 10:09 | 22.93300 | 121.51372 | 9710 ft | 267 kts | 191° |
| 2026-04-24 10:09 | 22.91451 | 121.51150 | 9584 ft | 268 kts | 191° |
| 2026-04-24 10:09 | 22.89576 | 121.50931 | 9460 ft | 268 kts | 190° |
| 2026-04-24 10:09 | 22.87747 | 121.50715 | 9332 ft | 268 kts | 190° |
| 2026-04-24 10:10 | 22.85868 | 121.50493 | 9204 ft | 268 kts | 190° |
| 2026-04-24 10:10 | 22.84040 | 121.50277 | 9080 ft | 268 kts | 190° |
| 2026-04-24 10:10 | 22.82185 | 121.50056 | 8948 ft | 268 kts | 190° |
| 2026-04-24 10:10 | 22.80330 | 121.49837 | 8822 ft | 268 kts | 189° |
| 2026-04-24 10:11 | 22.78470 | 121.49615 | 8706 ft | 269 kts | 189° |
| 2026-04-24 10:11 | 22.76613 | 121.49395 | 8577 ft | 269 kts | 189° |
| 2026-04-24 10:11 | 22.74756 | 121.49177 | 8453 ft | 268 kts | 189° |
| 2026-04-24 10:11 | 22.72900 | 121.48958 | 8325 ft | 268 kts | 189° |
| 2026-04-24 10:12 | 22.71045 | 121.48740 | 8199 ft | 268 kts | 189° |
| 2026-04-24 10:12 | 22.69198 | 121.48520 | 8079 ft | 265 kts | 191° |
| 2026-04-24 10:12 | 22.67544 | 121.47798 | 7954 ft | 256 kts | 220° |
| 2026-04-24 10:12 | 22.66248 | 121.46486 | 7845 ft | 256 kts | 231° |
| 2026-04-24 10:13 | 22.65151 | 121.44966 | 7725 ft | 257 kts | 236° |
| 2026-04-24 10:13 | 22.64127 | 121.43372 | 7513 ft | 261 kts | 237° |
| 2026-04-24 10:13 | 22.63077 | 121.41729 | 7172 ft | 269 kts | 237° |
| 2026-04-24 10:13 | 22.61985 | 121.40087 | 6990 ft | 268 kts | 235° |
| 2026-04-24 10:14 | 22.60876 | 121.38483 | 6899 ft | 264 kts | 235° |
| 2026-04-24 10:14 | 22.59787 | 121.36916 | 6901 ft | 257 kts | 234° |
| 2026-04-24 10:14 | 22.58712 | 121.35388 | 6898 ft | 253 kts | 234° |
| 2026-04-24 10:14 | 22.57653 | 121.33886 | 6898 ft | 250 kts | 235° |
| 2026-04-24 10:15 | 22.56617 | 121.32390 | 6897 ft | 247 kts | 235° |
| 2026-04-24 10:15 | 22.55592 | 121.30901 | 6900 ft | 246 kts | 235° |
| 2026-04-24 10:15 | 22.54576 | 121.29416 | 6903 ft | 245 kts | 235° |
| 2026-04-24 10:15 | 22.53563 | 121.27925 | 6812 ft | 248 kts | 236° |
| 2026-04-24 10:16 | 22.52534 | 121.26411 | 6700 ft | 251 kts | 236° |
| 2026-04-24 10:16 | 22.51493 | 121.24883 | 6574 ft | 254 kts | 236° |
| 2026-04-24 10:16 | 22.50444 | 121.23335 | 6460 ft | 255 kts | 236° |
| 2026-04-24 10:16 | 22.49750 | 121.22310 | 6376 ft | 256 kts | 236° |
| 2026-04-24 10:17 | 22.48329 | 121.20226 | 6209 ft | 257 kts | 236° |
| 2026-04-24 10:17 | 22.47624 | 121.19195 | 6127 ft | 257 kts | 235° |
| 2026-04-24 10:17 | 22.46559 | 121.17638 | 6010 ft | 258 kts | 236° |
| 2026-04-24 10:17 | 22.45495 | 121.16078 | 5880 ft | 258 kts | 236° |
| 2026-04-24 10:18 | 22.44426 | 121.14511 | 5760 ft | 259 kts | 235° |
| 2026-04-24 10:18 | 22.43361 | 121.12942 | 5641 ft | 259 kts | 236° |
| 2026-04-24 10:18 | 22.42292 | 121.11373 | 5516 ft | 259 kts | 236° |
| 2026-04-24 10:18 | 22.41225 | 121.09800 | 5397 ft | 260 kts | 236° |
| 2026-04-24 10:19 | 22.40157 | 121.08226 | 5278 ft | 260 kts | 235° |
| 2026-04-24 10:19 | 22.39118 | 121.06683 | 5171 ft | 248 kts | 236° |
| 2026-04-24 10:19 | 22.38126 | 121.05200 | 4990 ft | 239 kts | 236° |
| 2026-04-24 10:19 | 22.37184 | 121.03770 | 4803 ft | 227 kts | 241° |
| 2026-04-24 10:20 | 22.36862 | 121.02183 | 4636 ft | 216 kts | 276° |
| 2026-04-24 10:20 | 22.37188 | 121.00642 | 4452 ft | 209 kts | 298° |
| 2026-04-24 10:20 | 22.38256 | 120.99628 | 4286 ft | 209 kts | 336° |
| 2026-04-24 10:20 | 22.39641 | 120.99170 | 4121 ft | 207 kts | 343° |
| 2026-04-24 10:21 | 22.41025 | 120.98786 | 3954 ft | 204 kts | 345° |
| 2026-04-24 10:21 | 22.42429 | 120.98574 | 3787 ft | 203 kts | 353° |
| 2026-04-24 10:21 | 22.43835 | 120.98455 | 3635 ft | 202 kts | 355° |
| 2026-04-24 10:21 | 22.45223 | 120.98358 | 3551 ft | 198 kts | 355° |
| 2026-04-24 10:22 | 22.46576 | 120.98271 | 3507 ft | 192 kts | 355° |
| 2026-04-24 10:22 | 22.47892 | 120.98187 | 3497 ft | 187 kts | 356° |
| 2026-04-24 10:22 | 22.49178 | 120.98106 | 3488 ft | 183 kts | 355° |
| 2026-04-24 10:22 | 22.50421 | 120.98157 | 3483 ft | 176 kts | 14° |
| 2026-04-24 10:23 | 22.51592 | 120.98512 | 3477 ft | 174 kts | 15° |
| 2026-04-24 10:23 | 22.52752 | 120.98878 | 3480 ft | 173 kts | 15° |
| 2026-04-24 10:23 | 22.53904 | 120.99257 | 3481 ft | 173 kts | 16° |
| 2026-04-24 10:23 | 22.55054 | 120.99651 | 3482 ft | 174 kts | 17° |
| 2026-04-24 10:24 | 22.56177 | 121.00110 | 3493 ft | 171 kts | 22° |
| 2026-04-24 10:24 | 22.57256 | 121.00642 | 3490 ft | 169 kts | 24° |
| 2026-04-24 10:24 | 22.58302 | 121.01184 | 3485 ft | 168 kts | 25° |
| 2026-04-24 10:24 | 22.59371 | 121.01721 | 3441 ft | 169 kts | 24° |
| 2026-04-24 10:25 | 22.60454 | 121.02242 | 3276 ft | 169 kts | 23° |
| 2026-04-24 10:25 | 22.61530 | 121.02746 | 3107 ft | 168 kts | 23° |
| 2026-04-24 10:25 | 22.62596 | 121.03248 | 2937 ft | 167 kts | 24° |
| 2026-04-24 10:25 | 22.63637 | 121.03748 | 2767 ft | 159 kts | 25° |
| 2026-04-24 10:26 | 22.64571 | 121.04186 | 2676 ft | 133 kts | 23° |
| 2026-04-24 10:26 | 22.65393 | 121.04500 | 2362 ft | 126 kts | 19° |
| 2026-04-24 10:26 | 22.66253 | 121.04778 | 1932 ft | 125 kts | 18° |
| 2026-04-24 10:26 | 22.67092 | 121.05021 | 1537 ft | 126 kts | 16° |
| 2026-04-24 10:27 | 22.67906 | 121.05252 | 1322 ft | 118 kts | 16° |
| 2026-04-24 10:27 | 22.68725 | 121.05460 | 1070 ft | 122 kts | 13° |
| 2026-04-24 10:27 | 22.69534 | 121.05657 | 866 ft | 119 kts | 16° |
| 2026-04-24 10:27 | 22.70299 | 121.05914 | 741 ft | 110 kts | 20° |
| 2026-04-24 10:28 | 22.70975 | 121.06218 | 682 ft | 101 kts | 33° |
| 2026-04-24 10:28 | 22.71531 | 121.06677 | 578 ft | 102 kts | 39° |
| 2026-04-24 10:28 | 22.72073 | 121.07193 | 587 ft | 106 kts | 42° |
| 2026-04-24 10:28 | 22.72634 | 121.07715 | 592 ft | 104 kts | 40° |
| 2026-04-24 10:29 | 22.73192 | 121.08239 | 540 ft | 111 kts | 37° |
| 2026-04-24 10:29 | 22.73833 | 121.08718 | 429 ft | 113 kts | 37° |
| 2026-04-24 10:29 | 22.74443 | 121.09255 | 279 ft | 114 kts | 40° |
| 2026-04-24 10:29 | 22.75054 | 121.09787 | 167 ft | 108 kts | 39° |
| 2026-04-24 10:30 | 22.75573 | 121.10242 | 144 ft | 63 kts | 37° |
| 2026-04-24 10:30 | 22.75760 | 121.10400 | 143 ft | 9 kts | 38° |
| 2026-04-24 10:30 | 22.75807 | 121.10401 | 142 ft | 7 kts | 338° |
| 2026-04-24 10:30 | 22.75838 | 121.10365 | 141 ft | 7 kts | 308° |
| 2026-04-24 10:31 | 22.75883 | 121.10349 | 140 ft | 7 kts | 28° |
| 2026-04-24 10:31 | 22.75918 | 121.10380 | 140 ft | 6 kts | 39° |
| 2026-04-24 10:31 | 22.75948 | 121.10406 | 139 ft | 5 kts | 38° |
| 2026-04-24 10:31 | 22.75952 | 121.10410 | 139 ft | 0 kts | 37° |